Latest Weather Observations for Shark Bay Airport

IDW60801

Issued at 9:34 pm WST Saturday 3 December 2016 (issued every 30 minutes, with the page automatically refreshed every 10 minutes)

About weather observations | Map of weather stations | Latest weather observations for WA | Other Formats
Station Details ID: 006105 Name: SHARK BAY AIRPORT Lat: -25.89 Lon: 113.58 Height: 33.8 m
Data from the previous 72 hours. | See also: Recent months at Shark Bay Airport
Date/Time
WST
Temp
°C
App
Temp
°C
Dew
Point
°C
Rel
Hum
%
Delta-T
°C
Wind Press
QNH
hPa
Press
MSL
hPa
Rain since
9am
mm
Dir  Spd
km/h
Gust
km/h
Spd
kts
Gust
kts
03/09:30pm 19.4 16.0 13.8 70 3.2 S 24 41 13 22 1011.6 1011.4 0.0
03/09:00pm 19.5 15.0 13.7 69 3.3 SSW 30 41 16 22 1011.4 1011.2 0.0
03/08:30pm 19.6 15.4 13.5 68 3.5 SSW 28 39 15 21 1011.4 1011.2 0.0
03/08:00pm 19.8 15.6 13.5 67 3.6 SSW 28 39 15 21 1010.9 1010.7 0.0
03/07:30pm 20.0 15.9 13.7 67 3.6 SSW 28 39 15 21 1010.7 1010.5 0.0
03/07:00pm 20.4 15.7 13.1 63 4.2 SSW 30 43 16 23 1010.4 1010.2 0.0
03/06:30pm 21.2 16.0 12.9 59 4.7 SSW 32 43 17 23 1010.0 1009.8 0.0
03/06:00pm 22.3 16.8 12.5 53 5.6 SSW 33 44 18 24 1009.6 1009.4 0.0
03/05:30pm 23.3 17.9 12.9 52 6.0 SSW 33 43 18 23 1009.5 1009.3 0.0
03/05:00pm 23.9 18.7 12.8 49 6.4 SSW 32 44 17 24 1009.3 1009.1 0.0
03/04:30pm 24.5 19.2 12.5 47 6.9 SSW 32 44 17 24 1009.0 1008.8 0.0
03/04:00pm 25.0 18.9 11.9 44 7.5 SSW 35 44 19 24 1009.0 1008.8 0.0
03/03:30pm 25.2 19.6 11.4 42 7.8 SSW 32 43 17 23 1009.1 1008.9 0.0
03/03:00pm 25.6 20.2 12.1 43 7.8 SSW 32 43 17 23 1009.5 1009.3 0.0
03/02:30pm 25.6 20.0 11.4 41 8.1 SSW 32 41 17 22 1009.7 1009.5 0.0
03/02:00pm 26.3 21.5 11.6 40 8.4 SSW 28 39 15 21 1009.8 1009.6 0.0
03/01:30pm 26.4 21.5 11.3 39 8.6 SSW 28 39 15 21 1010.1 1009.9 0.0
03/01:00pm 25.9 21.1 11.6 40 8.2 SSW 28 41 15 22 1010.0 1009.8 0.0
03/12:30pm 25.8 21.1 10.8 39 8.4 SSW 26 39 14 21 1010.0 1009.8 0.0
03/12:00pm 25.6 20.7 11.4 41 8.1 SSW 28 43 15 23 1010.2 1010.0 0.0
03/11:30am 26.5 22.7 12.5 41 8.1 SSW 24 41 13 22 1010.2 1010.0 0.0
03/11:00am 24.7 20.6 11.6 44 7.4 SSW 24 37 13 20 1010.3 1010.1 0.0
03/10:30am 24.2 20.3 12.2 47 6.9 SW 24 33 13 18 1010.6 1010.4 0.0
03/10:00am 24.4 21.1 12.7 48 6.8 SSW 22 32 12 17 1010.7 1010.5 0.0
03/09:30am 23.5 19.9 13.1 52 6.0 SSW 24 35 13 19 1010.9 1010.7 0.0
03/09:00am 23.3 19.9 12.6 51 6.1 SSW 22 30 12 16 1010.9 1010.7 0.0
03/08:30am 22.7 19.5 13.2 55 5.5 S 22 32 12 17 1010.9 1010.7 0.0
03/08:00am 21.6 18.0 13.2 59 4.8 SSW 24 33 13 18 1010.8 1010.6 0.0
03/07:30am 22.5 19.5 13.8 58 5.1 S 22 32 12 17 1010.5 1010.3 0.0
03/07:00am 21.3 18.9 13.7 62 4.4 SSE 19 26 10 14 1010.3 1010.1 0.0
03/06:30am 19.2 18.8 14.0 72 3.0 S 9 13 5 7 1010.1 1009.9 0.0
03/06:00am 17.7 17.2 13.8 78 2.2 S 9 13 5 7 1009.8 1009.6 0.0
03/05:30am 17.1 15.6 13.0 77 2.3 S 13 17 7 9 1009.3 1009.1 0.0
03/05:00am 17.9 15.4 13.4 75 2.6 S 19 28 10 15 1009.0 1008.8 0.0
03/04:30am 18.2 15.7 13.5 74 2.7 S 19 26 10 14 1008.9 1008.7 0.0
03/04:00am 18.4 16.0 13.7 74 2.7 S 19 26 10 14 1008.8 1008.6 0.0
03/03:30am 18.4 16.5 14.1 76 2.5 S 17 22 9 12 1008.5 1008.3 0.0
03/03:00am 18.5 16.0 14.0 75 2.6 S 20 28 11 15 1008.2 1008.0 0.0
03/02:30am 18.6 15.7 14.1 75 2.6 S 22 32 12 17 1008.3 1008.1 0.0
03/02:00am 18.7 15.1 14.2 75 2.6 SSW 26 33 14 18 1008.3 1008.1 0.0
03/01:30am 19.0 16.0 14.9 77 2.4 SSW 24 33 13 18 1008.5 1008.3 0.0
03/01:00am 19.0 15.7 14.9 77 2.4 SSW 26 35 14 19 1008.5 1008.3 0.0
03/12:30am 19.0 16.6 15.3 79 2.2 SSW 22 32 12 17 1008.6 1008.4 0.0
03/12:00am 18.8 16.7 15.3 80 2.1 S 20 28 11 15 1008.7 1008.5 0.0
 
Date/Time
WST
Temp
°C
App
Temp
°C
Dew
Point
°C
Rel
Hum
%
Delta-T
°C
Wind Press
QNH
hPa
Press
MSL
hPa
Rain since
9am
mm
Dir  Spd
km/h
Gust
km/h
Spd
kts
Gust
kts
02/11:30pm 18.9 16.4 15.2 79 2.2 SSW 22 30 12 16 1008.7 1008.5 0.0
02/11:00pm 19.0 16.6 15.3 79 2.2 S 22 32 12 17 1008.8 1008.6 0.0
02/10:30pm 18.9 16.4 15.2 79 2.2 S 22 37 12 20 1009.1 1008.9 0.0
02/10:00pm 19.2 17.3 15.3 78 2.3 S 19 26 10 14 1009.3 1009.1 0.0
02/09:30pm 19.5 16.4 15.6 78 2.3 SSW 26 35 14 19 1009.2 1009.0 0.0
02/09:00pm 19.8 16.3 15.4 76 2.6 SSW 28 39 15 21 1009.3 1009.1 0.0
02/08:30pm 19.9 15.9 15.3 75 2.7 SSW 30 39 16 21 1009.0 1008.8 0.0
02/08:00pm 20.2 16.7 15.6 75 2.7 SSW 28 39 15 21 1008.9 1008.7 0.0
02/07:30pm 20.6 16.4 15.8 74 2.9 SSW 32 44 17 24 1008.5 1008.3 0.0
02/07:00pm 21.3 16.6 15.8 71 3.3 SSW 35 46 19 25 1008.2 1008.0 0.0
02/06:30pm 22.2 17.9 15.3 65 4.1 SSW 32 44 17 24 1008.2 1008.0 0.0
02/06:00pm 23.6 19.2 15.6 61 4.8 SSW 33 46 18 25 1007.8 1007.6 0.0
02/05:30pm 24.3 19.1 15.5 58 5.3 SSW 37 46 20 25 1007.6 1007.4 0.0
02/05:00pm 25.7 21.1 15.1 52 6.4 SSW 33 46 18 25 1007.5 1007.3 0.0
02/04:30pm 26.8 22.2 15.2 49 7.0 SSW 33 44 18 24 1007.6 1007.4 0.0
02/04:00pm 27.0 22.5 15.4 49 7.1 SSW 33 43 18 23 1007.6 1007.4 0.0
02/03:30pm 27.3 22.5 14.7 46 7.6 SSW 33 44 18 24 1007.7 1007.5 0.0
02/03:00pm 27.7 22.3 14.0 43 8.2 SSW 35 44 19 24 1007.9 1007.7 0.0
02/02:30pm 28.2 23.0 14.4 42 8.3 SSW 35 44 19 24 1008.1 1007.9 0.0
02/02:00pm 28.2 23.2 14.1 42 8.5 SSW 33 44 18 24 1008.4 1008.2 0.0
02/01:30pm 28.3 23.4 14.2 42 8.5 SSW 33 43 18 23 1008.7 1008.5 0.0
02/01:00pm 28.4 23.7 14.3 42 8.5 SW 32 39 17 21 1008.8 1008.6 0.0
02/12:30pm 28.4 24.1 14.3 42 8.5 SSW 30 41 16 22 1009.0 1008.8 0.0
02/12:00pm 28.3 24.3 15.2 44 8.0 SSW 30 39 16 21 1009.3 1009.1 0.0
02/11:30am 27.6 22.9 14.3 44 8.0 SSW 32 43 17 23 1009.6 1009.4 0.0
02/11:00am 26.8 22.0 15.5 50 6.9 SSW 35 46 19 25 1009.6 1009.4 0.0
02/10:30am 27.1 23.0 12.7 41 8.4 SSW 26 39 14 21 1009.9 1009.7 0.0
02/10:00am 26.8 23.2 14.2 46 7.5 S 26 37 14 20 1010.2 1010.0 0.0
02/09:30am 25.5 21.9 15.2 53 6.2 S 28 39 15 21 1010.3 1010.1 0.0
02/09:00am 24.6 21.5 15.5 57 5.5 S 26 37 14 20 1010.4 1010.2 0.0
02/08:30am 24.5 20.9 16.2 60 5.1 S 30 43 16 23 1010.5 1010.3 0.0
02/08:00am 23.7 20.6 15.7 61 4.8 S 26 35 14 19 1010.6 1010.4 0.0
02/07:30am 22.3 18.8 15.4 65 4.1 S 28 39 15 21 1010.5 1010.3 0.0
02/07:00am 21.3 18.1 16.3 73 3.0 S 28 41 15 22 1010.5 1010.3 0.0
02/06:30am 20.5 17.8 15.7 74 2.9 S 24 35 13 19 1010.2 1010.0 0.0
02/06:00am 19.3 17.3 15.4 78 2.3 S 20 28 11 15 1010.3 1010.1 0.0
02/05:30am 18.6 16.1 15.1 80 2.0 S 22 33 12 18 1010.0 1009.8 0.0
02/05:00am 18.5 16.4 15.2 81 1.9 S 20 30 11 16 1009.8 1009.6 0.0
02/04:30am 18.8 16.0 15.3 80 2.1 S 24 32 13 17 1009.6 1009.4 0.0
02/04:00am 18.8 16.4 15.5 81 1.9 S 22 32 12 17 1009.4 1009.2 0.0
02/03:30am 18.9 16.4 15.2 79 2.2 S 22 30 12 16 1009.3 1009.1 0.0
02/03:00am 18.9 16.5 15.4 80 2.1 S 22 32 12 17 1009.2 1009.0 0.0
02/02:30am 19.1 16.0 15.6 80 2.1 S 26 39 14 21 1009.3 1009.1 0.0
02/02:00am 19.2 16.6 15.9 81 2.0 S 24 37 13 20 1009.4 1009.2 0.0
02/01:30am 19.3 16.7 15.8 80 2.1 S 24 35 13 19 1009.4 1009.2 0.0
02/01:00am 19.5 16.9 16.0 80 2.1 S 24 37 13 20 1009.6 1009.4 0.0
02/12:30am 19.7 16.0 16.0 79 2.2 S 30 43 16 23 1009.6 1009.4 0.0
02/12:00am 19.9 16.7 16.3 80 2.2 S 28 39 15 21 1009.8 1009.6 0.0
 
Date/Time
WST
Temp
°C
App
Temp
°C
Dew
Point
°C
Rel
Hum
%
Delta-T
°C
Wind Press
QNH
hPa
Press
MSL
hPa
Rain since
9am
mm
Dir  Spd
km/h
Gust
km/h
Spd
kts
Gust
kts
01/11:30pm 19.8 16.9 16.1 79 2.2 S 26 39 14 21 1010.0 1009.8 0.0
01/11:00pm 19.9 17.0 16.2 79 2.2 S 26 41 14 22 1010.2 1010.0 0.0
01/10:30pm 20.1 16.8 16.1 78 2.4 S 28 41 15 22 1010.3 1010.1 0.0
01/10:27pm 20.0 16.3 16.0 78 2.4 S 30 48 16 26 1010.3 1010.1 0.0
01/10:00pm 20.3 16.7 16.3 78 2.4 S 30 46 16 25 1010.4 1010.2 0.0
01/09:30pm 20.3 16.1 16.1 77 2.5 S 33 46 18 25 1010.1 1009.9 0.0
01/09:00pm 20.5 15.9 16.1 76 2.6 S 35 52 19 28 1010.0 1009.8 0.0
01/08:30pm 20.7 16.4 15.9 74 2.9 S 33 50 18 27 1010.0 1009.8 0.0
01/08:26pm 20.7 17.0 15.9 74 2.9 S 30 50 16 27 1010.0 1009.8 0.0
01/08:00pm 21.0 16.0 15.1 69 3.5 S 35 48 19 26 1009.7 1009.5 0.0
01/07:30pm 21.2 17.0 14.6 66 3.9 SSW 30 41 16 22 1009.5 1009.3 0.0
01/07:00pm 21.7 16.7 15.1 66 3.9 SSW 35 44 19 24 1009.1 1008.9 0.0
01/06:30pm 22.5 17.1 14.9 62 4.5 SSW 37 52 20 28 1009.0 1008.8 0.0
01/06:00pm 23.5 16.8 13.4 53 5.9 SSW 41 57 22 31 1008.6 1008.4 0.0
01/05:30pm 24.3 18.4 13.5 51 6.3 SSW 37 52 20 28 1008.5 1008.3 0.0
01/05:15pm 25.2 20.2 14.0 49 6.6 SSW 33 52 18 28 1008.5 1008.3 0.0
01/05:00pm 24.9 18.7 13.8 50 6.5 SSW 39 54 21 29 1008.6 1008.4 0.0
01/04:30pm 25.4 19.1 14.5 51 6.5 SSW 41 52 22 28 1008.7 1008.5 0.0
01/04:00pm 26.2 20.1 14.0 47 7.3 SSW 39 50 21 27 1008.9 1008.7 0.0
01/03:30pm 26.6 20.7 13.7 45 7.6 SSW 37 50 20 27 1009.1 1008.9 0.0
01/03:00pm 27.5 21.7 13.8 43 8.2 SSW 37 48 20 26 1009.3 1009.1 0.0
01/02:30pm 28.0 22.6 12.8 39 8.9 SSW 33 44 18 24 1009.5 1009.3 0.0
01/02:00pm 28.6 23.4 12.9 38 9.3 SSW 32 43 17 23 1010.0 1009.8 0.0
01/01:30pm 28.0 23.3 13.1 39 8.8 SSW 30 44 16 24 1010.3 1010.1 0.0
01/01:00pm 27.8 22.8 14.1 43 8.2 SSW 33 44 18 24 1010.6 1010.4 0.0
01/12:30pm 27.3 22.6 13.3 42 8.3 SSW 30 43 16 23 1010.8 1010.6 0.0
01/12:00pm 28.0 23.4 12.4 38 9.1 SSW 28 39 15 21 1011.2 1011.0 0.0
01/11:30am 26.6 21.4 11.5 39 8.6 SSW 30 41 16 22 1011.5 1011.3 0.0
01/11:00am 26.5 22.3 12.5 41 8.1 SSW 26 41 14 22 1011.9 1011.7 0.0
01/10:30am 25.9 21.2 10.5 38 8.6 S 26 39 14 21 1012.3 1012.1 0.0
01/10:00am 25.5 21.2 12.0 43 7.7 S 26 39 14 21 1012.5 1012.3 0.0
01/09:30am 24.7 20.5 12.3 46 7.1 S 26 41 14 22 1012.8 1012.6 0.0
01/09:00am 23.4 18.7 12.1 49 6.4 S 28 41 15 22 1013.2 1013.0 0.0
01/08:30am 23.0 18.3 13.2 54 5.7 S 30 41 16 22 1013.2 1013.0 0.0
01/08:00am 22.4 18.8 13.2 56 5.3 S 24 33 13 18 1013.2 1013.0 0.0
01/07:30am 21.5 18.0 13.4 60 4.7 S 24 35 13 19 1013.1 1013.0 0.0
01/07:00am 20.7 16.9 13.6 64 4.1 SSE 26 35 14 19 1013.0 1012.9 0.0
01/06:30am 20.0 17.1 13.9 68 3.5 SSE 22 30 12 16 1013.0 1012.9 0.0
01/06:00am 19.0 16.4 13.8 72 3.0 SSE 20 28 11 15 1012.8 1012.7 0.0
01/05:30am 18.9 15.9 13.7 72 3.0 SSE 22 30 12 16 1012.5 1012.4 0.0
01/05:00am 19.5 17.0 14.1 71 3.1 SSE 20 30 11 16 1012.3 1012.2 0.0
01/04:30am 20.0 16.9 14.6 71 3.2 SSE 24 37 13 20 1012.2 1012.1 0.0
01/04:00am 19.7 16.6 14.5 72 3.0 SSE 24 33 13 18 1012.1 1012.0 0.0
01/03:30am 19.6 16.8 14.4 72 3.0 S 22 32 12 17 1011.9 1011.8 0.0
01/03:00am 19.5 15.9 14.3 72 3.0 S 26 35 14 19 1011.8 1011.7 0.0
01/02:30am 19.9 16.5 14.7 72 3.0 S 26 41 14 22 1011.8 1011.7 0.0
01/02:00am 19.9 15.3 14.5 71 3.1 S 32 43 17 23 1011.8 1011.7 0.0
01/01:30am 20.0 16.2 14.8 72 3.0 S 28 43 15 23 1012.0 1011.9 0.0
01/01:00am 19.8 15.6 14.6 72 3.0 S 30 43 16 23 1012.2 1012.1 0.0
01/12:30am 19.6 15.3 14.4 72 3.0 S 30 43 16 23 1012.4 1012.3 0.0
01/12:25am 19.6 14.9 14.4 72 3.0 S 32 50 17 27 1012.4 1012.3 0.0
01/12:00am 19.9 15.2 14.9 73 2.9 S 33 48 18 26 1012.6 1012.5 0.0
 
Date/Time
WST
Temp
°C
App
Temp
°C
Dew
Point
°C
Rel
Hum
%
Delta-T
°C
Wind Press
QNH
hPa
Press
MSL
hPa
Rain since
9am
mm
Dir  Spd
km/h
Gust
km/h
Spd
kts
Gust
kts
30/11:31pm 19.9 15.1 14.7 72 3.0 S 33 52 18 28 1012.7 1012.6 0.0
30/11:30pm 19.9 14.8 14.7 72 3.0 S 35 52 19 28 1012.7 1012.6 0.0
30/11:17pm 19.9 15.3 14.7 72 3.0 S 32 50 17 27 1012.8 1012.7 0.0
30/11:00pm 20.2 16.2 15.2 73 3.0 S 30 41 16 22 1012.9 1012.8 0.0
30/10:30pm 20.1 15.4 14.9 72 3.1 S 33 48 18 26 1013.0 1012.9 0.0
30/10:15pm 20.1 15.6 14.9 72 3.1 S 32 52 17 28 1012.8 1012.7 0.0
30/10:00pm 20.2 16.1 15.0 72 3.1 S 30 46 16 25 1012.8 1012.7 0.0
30/09:33pm 20.2 15.8 15.2 73 3.0 S 32 50 17 27 1012.6 1012.5 0.0

Other Formats:

Comma delimited format used in spreadsheet applications
http://www.bom.gov.au/fwo/IDW60801/IDW60801.95402.axf

JavaScript Object Notation format (JSON) in row-major order
http://www.bom.gov.au/fwo/IDW60801/IDW60801.95402.json